Latest Coastal Weather Observations for Hindmarsh Island

IDS60701

Issued at 12:41 am CST Monday 6 July 2015 (issued every 10 minutes, with the page automatically refreshed every 10 minutes)

About coastal observations | Map of coastal stations | Coastal observations for SA | Marine services | Other Formats
Station Details ID: 023894 Name: HINDMARSH ISLAND AWS Lat: -35.52 Lon: 138.82 Height: 11.0 m
Data from the previous 72 hours. | See also: Recent months at Hindmarsh Island
Date/Time
CST
Temp

°C
Wind Pressure Rain
since 9am
mm
Weather Cloud Vis
km
Sea
Height
m
Swell
Dir
 
Speed
knots
Gust
knots
hPa Trend Height
m
Period
s
Dir
06/12:30am 13.3 NNW 7 11 1014.8 - 0.0 - - - - - - -
06/12:00am 12.7 NNW 7 9 1015.3 - 0.0 - - - - - - -
 
Date/Time
CST
Temp

°C
Wind Pressure Rain
since 9am
mm
Weather Cloud Vis
km
Sea
Height
m
Swell
Dir
 
Speed
knots
Gust
knots
hPa Trend Height
m
Period
s
Dir
05/11:30pm 12.8 NNW 7 10 1015.6 - 0.0 - - - - - - -
05/11:00pm 13.3 N 9 12 1015.5 - 0.0 - - - - - - -
05/10:30pm 13.4 NNW 11 14 1015.7 - 0.0 - - - - - - -
05/10:00pm 13.4 NNW 10 14 1015.7 - 0.0 - - - - - - -
05/09:30pm 13.8 N 10 12 1016.0 - 0.0 - - - - - - -
05/09:00pm 14.3 NNW 13 19 1015.9 - 0.0 - - - - - - -
05/08:30pm 14.7 NNW 13 21 1016.0 - 0.0 - - - - - - -
05/08:00pm 13.8 N 11 13 1015.9 - 0.0 - - - - - - -
05/07:30pm 14.0 N 10 14 1016.0 - 0.0 - - - - - - -
05/07:00pm 13.6 N 7 9 1016.2 - 0.0 - - - - - - -
05/06:30pm 13.1 NE 7 8 1016.3 - 0.0 - - - - - - -
05/06:00pm 14.2 N 6 9 1016.3 - 0.0 - - - - - - -
05/05:30pm 14.5 NNW 6 9 1016.2 - 0.0 - - - - - - -
05/05:00pm 15.1 NNW 7 10 1016.5 - 0.0 - - - - - - -
05/04:30pm 16.2 NNW 7 9 1016.4 - 0.0 - - - - - - -
05/04:00pm 15.9 NNW 9 14 1016.5 - 0.0 - - - - - - -
05/03:30pm 16.1 NNW 5 8 1016.6 - 0.0 - - - - - - -
05/03:00pm 16.1 NW 11 15 1016.8 - 0.0 - - - - - - -
05/02:30pm 16.2 NW 14 19 1016.8 - 0.0 - - - - - - -
05/02:00pm 16.2 NW 20 25 1016.6 - 0.0 - - - - - - -
05/01:30pm 16.6 NW 18 25 1016.6 - 0.0 - - - - - - -
05/01:00pm 16.8 NW 16 22 1017.1 - 0.0 - - - - - - -
05/12:30pm 16.4 NW 17 23 1017.6 - 0.0 - - - - - - -
05/12:00pm 16.4 NW 15 19 1018.0 - 0.0 - - - - - - -
05/11:30am 16.2 NW 15 21 1018.4 - 0.0 - - - - - - -
05/11:00am 15.8 NW 15 19 1018.6 - 0.0 - - - - - - -
05/10:30am 15.7 NW 11 17 1019.0 - 0.0 - - - - - - -
05/10:00am 14.9 NNW 9 12 1019.1 - 0.0 - - - - - - -
05/09:30am 13.6 NNW 10 14 1019.1 - 0.0 - - - - - - -
05/09:00am 12.6 NNW 9 13 1019.3 - 0.0 Fine Mostly clear 20 - - - -
05/08:30am 11.3 N 7 12 1019.1 - 0.0 - - - - - - -
05/08:00am 9.9 N 7 10 1019.1 - 0.0 - - - - - - -
05/07:30am 9.1 N 6 7 1019.3 - 0.0 - - - - - - -
05/07:00am 8.8 N 6 7 1019.1 - 0.0 - - - - - - -
05/06:30am 9.3 N 6 7 1019.1 - 0.0 - - - - - - -
05/06:00am 9.1 N 6 8 1018.9 - 0.0 - - - - - - -
05/05:30am 8.8 N 5 6 1019.0 - 0.0 - - - - - - -
05/05:00am 9.5 N 6 8 1019.1 - 0.0 - - - - - - -
05/04:30am 9.8 N 8 11 1019.0 - 0.0 - - - - - - -
05/04:00am 10.2 N 10 13 1019.1 - 0.0 - - - - - - -
05/03:30am 10.6 N 11 14 1019.2 - 0.0 - - - - - - -
05/03:00am 10.5 NNW 10 14 1019.4 - 0.0 - - - - - - -
05/02:30am 10.1 NNW 10 13 1019.6 - 0.0 - - - - - - -
05/02:00am 10.0 NW 8 10 1019.7 - 0.0 - - - - - - -
05/01:30am 9.6 NNW 8 10 1019.7 - 0.0 - - - - - - -
05/01:00am 8.6 N 5 7 1019.9 - 0.0 - - - - - - -
05/12:30am 8.8 N 7 9 1020.3 - 0.0 - - - - - - -
05/12:00am 9.3 N 8 10 1020.5 - 0.0 - - - - - - -
 
Date/Time
CST
Temp

°C
Wind Pressure Rain
since 9am
mm
Weather Cloud Vis
km
Sea
Height
m
Swell
Dir
 
Speed
knots
Gust
knots
hPa Trend Height
m
Period
s
Dir
04/11:30pm 9.4 N 8 9 1020.6 - 0.0 - - - - - - -
04/11:00pm 10.0 N 9 12 1020.8 - 0.0 - - - - - - -
04/10:30pm 9.6 N 7 9 1020.9 - 0.0 - - - - - - -
04/10:00pm 10.0 N 6 7 1021.2 - 0.0 - - - - - - -
04/09:30pm 10.0 N 7 9 1021.1 - 0.0 - - - - - - -
04/09:00pm 10.9 N 8 11 1021.4 - 0.0 - - - - - - -
04/08:30pm 10.3 N 8 9 1021.4 - 0.0 - - - - - - -
04/08:00pm 10.6 N 6 7 1021.6 - 0.0 - - - - - - -
04/07:30pm 11.5 N 6 8 1021.8 - 0.0 - - - - - - -
04/07:00pm 11.3 N 5 6 1021.7 - 0.0 - - - - - - -
04/06:30pm 11.8 N 6 7 1021.7 - 0.0 - - - - - - -
04/06:00pm 12.8 NW 6 7 1021.6 - 0.0 - - - - - - -
04/05:30pm 13.4 NW 7 8 1021.5 - 0.0 - - - - - - -
04/05:00pm 14.5 NW 5 6 1021.3 - 0.0 - - - - - - -
04/04:30pm 15.5 NW 6 8 1021.1 - 0.0 - - - - - - -
04/04:00pm 16.1 NW 8 9 1021.2 - 0.0 - - - - - - -
04/03:30pm 16.5 WNW 8 12 1021.3 - 0.0 - - - - - - -
04/03:00pm 17.0 NW 7 11 1021.2 - 0.0 - - - - - - -
04/02:30pm 16.7 WNW 6 8 1021.3 - 0.0 - - - - - - -
04/02:00pm 16.9 NW 8 11 1021.5 - 0.0 - - - - - - -
04/01:30pm 16.5 NW 6 9 1021.8 - 0.0 - - - - - - -
04/01:00pm 16.5 NW 6 11 1022.3 - 0.0 - - - - - - -
04/12:30pm 16.0 NW 9 13 1022.7 - 0.0 - - - - - - -
04/12:00pm 15.5 NNW 8 10 1023.1 - 0.0 - - - - - - -
04/11:30am 14.9 NNW 9 11 1023.5 - 0.0 - - - - - - -
04/11:00am 14.0 N 5 8 1023.9 - 0.0 - - - - - - -
04/10:30am 12.7 N 6 8 1024.1 - 0.0 - - - - - - -
04/10:00am 12.1 N 6 8 1024.1 - 0.0 - - - - - - -
04/09:30am 11.7 NNW 6 8 1024.2 - 0.0 - - - - - - -
04/09:00am 11.2 N 5 8 1024.1 - 0.0 Fine Mostly cloudy 15 - - - -
04/08:30am 10.9 N 6 7 1023.9 - 0.0 - - - - - - -
04/08:00am 10.5 N 6 7 1023.8 - 0.0 - - - - - - -
04/07:30am 9.3 N 4 5 1023.8 - 0.0 - - - - - - -
04/07:00am 9.3 N 4 5 1023.6 - 0.0 - - - - - - -
04/06:30am 9.0 N 5 6 1023.4 - 0.0 - - - - - - -
04/06:00am 9.0 N 5 6 1023.1 - 0.0 - - - - - - -
04/05:30am 9.0 N 5 7 1022.9 - 0.0 - - - - - - -
04/05:00am 9.1 N 7 8 1022.9 - 0.0 - - - - - - -
04/04:30am 9.3 N 7 8 1022.9 - 0.0 - - - - - - -
04/04:00am 9.1 N 7 9 1023.1 - 0.0 - - - - - - -
04/03:30am 8.4 N 7 8 1023.2 - 0.0 - - - - - - -
04/03:00am 8.4 N 7 9 1023.2 - 0.0 - - - - - - -
04/02:30am 8.5 N 5 6 1023.5 - 0.0 - - - - - - -
04/02:00am 8.7 N 5 6 1023.8 - 0.0 - - - - - - -
04/01:30am 9.0 N 5 7 1023.9 - 0.0 - - - - - - -
04/01:00am 9.1 N 6 7 1023.9 - 0.0 - - - - - - -
04/12:30am 9.0 N 6 6 1024.1 - 0.0 - - - - - - -
04/12:00am 8.9 N 5 6 1024.6 - 0.0 - - - - - - -
 
Date/Time
CST
Temp

°C
Wind Pressure Rain
since 9am
mm
Weather Cloud Vis
km
Sea
Height
m
Swell
Dir
 
Speed
knots
Gust
knots
hPa Trend Height
m
Period
s
Dir
03/11:30pm 9.2 N 6 7 1024.8 - 0.0 - - - - - - -
03/11:00pm 9.2 N 6 7 1024.9 - 0.0 - - - - - - -
03/10:30pm 9.6 N 6 7 1025.2 - 0.0 - - - - - - -
03/10:00pm 9.9 N 6 8 1025.4 - 0.0 - - - - - - -
03/09:30pm 9.6 N 7 9 1025.5 - 0.0 - - - - - - -
03/09:00pm 9.7 N 5 7 1025.8 - 0.0 - - - - - - -
03/08:30pm 9.7 N 6 8 1025.7 - 0.0 - - - - - - -
03/08:00pm 9.6 N 6 7 1025.8 - 0.0 - - - - - - -
03/07:30pm 9.5 N 5 6 1025.8 - 0.0 - - - - - - -
03/07:00pm 9.5 N 5 6 1025.8 - 0.0 - - - - - - -
03/06:30pm 9.7 N 5 6 1025.9 - 0.0 - - - - - - -
03/06:00pm 9.9 N 5 6 1025.7 - 0.0 - - - - - - -
03/05:30pm 10.2 N 4 5 1025.8 - 0.0 - - - - - - -
03/05:00pm 10.5 NNE 5 5 1025.9 - 0.0 - - - - - - -
03/04:30pm 10.9 NNE 4 4 1025.9 - 0.0 - - - - - - -
03/04:00pm 11.4 NE 4 5 1026.1 - 0.0 - - - - - - -
03/03:30pm 11.5 ENE 6 7 1026.1 - 0.0 - - - - - - -
03/03:00pm 11.8 E 5 7 1026.3 - 0.0 - - - - - - -
03/02:30pm 12.0 E 5 7 1026.3 - 0.0 - - - - - - -
03/02:00pm 12.0 ENE 4 6 1026.4 - 0.0 - - - - - - -
03/01:30pm 12.1 NE 4 6 1026.7 - 0.0 - - - - - - -
03/01:00pm 12.5 NE 6 9 1027.1 - 0.0 - - - - - - -
03/12:30pm 11.9 NE 7 9 1027.5 - 0.0 - - - - - - -
03/12:00pm 11.8 NNE 7 9 1028.1 - 0.0 - - - - - - -
03/11:30am 11.5 NNE 7 9 1028.9 - 0.0 - - - - - - -
03/11:00am 10.4 N 7 10 1028.9 - 0.0 - - - - - - -
03/10:30am 9.2 NNE 8 9 1029.1 - 0.0 - - - - - - -
03/10:00am 8.7 N 8 9 1029.5 - 0.0 - - - - - - -
03/09:30am 7.2 NNE 9 11 1029.3 - 0.0 - - - - - - -
03/09:00am 7.2 N 8 10 1029.5 - 0.0 Haze Cloudy 8 - - - -
03/08:30am 5.6 N 9 10 1029.7 - 0.0 - - - - - - -
03/08:00am 5.1 N 9 10 1029.5 - 0.0 - - - - - - -
03/07:30am 5.1 N 7 8 1029.1 - 0.0 - - - - - - -
03/07:00am 5.1 NNE 3 5 1029.0 - 0.0 - - - - - - -
03/06:30am 5.7 N 7 8 1028.8 - 0.0 - - - - - - -
03/06:00am 6.5 N 7 7 1028.8 - 0.0 - - - - - - -
03/05:30am 7.0 N 7 7 1028.7 - 0.0 - - - - - - -
03/05:00am 7.6 N 6 8 1028.9 - 0.0 - - - - - - -
03/04:30am 8.0 N 7 9 1029.1 - 0.0 - - - - - - -
03/04:00am 8.1 N 8 9 1029.1 - 0.0 - - - - - - -
03/03:30am 8.1 N 7 9 1029.3 - 0.0 - - - - - - -
03/03:00am 8.1 N 8 9 1029.5 - 0.0 - - - - - - -
03/02:30am 7.5 N 6 7 1029.8 - 0.0 - - - - - - -
03/02:00am 6.6 NNE 5 6 1029.5 - 0.0 - - - - - - -
03/01:30am 7.9 NNE 3 5 1029.5 - 0.0 - - - - - - -
03/01:00am 8.1 NNE 4 6 1029.5 - 0.0 - - - - - - -

Other Formats:

Comma delimited format used in spreadsheet applications
http://www.bom.gov.au/fwo/IDS60701/IDS60701.94677.axf

JavaScript Object Notation format (JSON) in row-major order
http://www.bom.gov.au/fwo/IDS60701/IDS60701.94677.json